sensor_id;sensor_type;location;lat;lon;timestamp;pressure;altitude;pressure_sealevel;temperature
70533;BMP180;58088;51.186;17.130;2022-08-19T00:01:51;99624.80;;;26.50
70533;BMP180;58088;51.186;17.130;2022-08-19T00:04:22;99626.40;;;26.50
70533;BMP180;58088;51.186;17.130;2022-08-19T00:06:48;99625.00;;;26.50
70533;BMP180;58088;51.186;17.130;2022-08-19T00:09:18;99613.20;;;26.44
70533;BMP180;58088;51.186;17.130;2022-08-19T00:11:45;99609.20;;;26.40
70533;BMP180;58088;51.186;17.130;2022-08-19T00:14:15;99613.20;;;26.40
70533;BMP180;58088;51.186;17.130;2022-08-19T00:16:45;99609.60;;;26.40
70533;BMP180;58088;51.186;17.130;2022-08-19T00:19:12;99602.00;;;26.30
70533;BMP180;58088;51.186;17.130;2022-08-19T00:21:39;99599.40;;;26.30
70533;BMP180;58088;51.186;17.130;2022-08-19T00:24:08;99597.60;;;26.30
70533;BMP180;58088;51.186;17.130;2022-08-19T00:26:35;99589.60;;;26.20
70533;BMP180;58088;51.186;17.130;2022-08-19T00:29:03;99584.60;;;26.10
70533;BMP180;58088;51.186;17.130;2022-08-19T00:31:30;99582.60;;;26.10
70533;BMP180;58088;51.186;17.130;2022-08-19T00:33:57;99575.00;;;26.00
70533;BMP180;58088;51.186;17.130;2022-08-19T00:36:23;99574.60;;;26.00
70533;BMP180;58088;51.186;17.130;2022-08-19T00:38:49;99568.80;;;26.00
70533;BMP180;58088;51.186;17.130;2022-08-19T00:41:21;99562.00;;;25.94
70533;BMP180;58088;51.186;17.130;2022-08-19T00:44:22;99556.40;;;25.90
70533;BMP180;58088;51.186;17.130;2022-08-19T00:46:51;99560.20;;;25.80
70533;BMP180;58088;51.186;17.130;2022-08-19T00:49:31;99561.60;;;25.70
70533;BMP180;58088;51.186;17.130;2022-08-19T00:52:13;99567.20;;;25.70
70533;BMP180;58088;51.186;17.130;2022-08-19T00:54:41;99564.00;;;25.70
70533;BMP180;58088;51.186;17.130;2022-08-19T00:57:12;99562.60;;;25.70
70533;BMP180;58088;51.186;17.130;2022-08-19T00:59:42;99551.20;;;25.60
70533;BMP180;58088;51.186;17.130;2022-08-19T01:02:08;99553.60;;;25.60
70533;BMP180;58088;51.186;17.130;2022-08-19T01:04:54;99558.00;;;25.54
70533;BMP180;58088;51.186;17.130;2022-08-19T01:07:21;99559.80;;;25.50
70533;BMP180;58088;51.186;17.130;2022-08-19T01:09:47;99559.20;;;25.50
70533;BMP180;58088;51.186;17.130;2022-08-19T01:12:14;99563.80;;;25.42
70533;BMP180;58088;51.186;17.130;2022-08-19T01:14:41;99584.80;;;25.40
70533;BMP180;58088;51.186;17.130;2022-08-19T01:17:10;99566.00;;;25.46
70533;BMP180;58088;51.186;17.130;2022-08-19T01:19:41;99550.80;;;25.46
70533;BMP180;58088;51.186;17.130;2022-08-19T01:24:51;99532.60;;;25.42
70533;BMP180;58088;51.186;17.130;2022-08-19T01:27:17;99521.80;;;25.40
70533;BMP180;58088;51.186;17.130;2022-08-19T01:29:45;99525.60;;;25.40
70533;BMP180;58088;51.186;17.130;2022-08-19T01:32:15;99515.40;;;25.40
70533;BMP180;58088;51.186;17.130;2022-08-19T01:34:42;99513.60;;;25.40
70533;BMP180;58088;51.186;17.130;2022-08-19T01:37:14;99516.00;;;25.30
70533;BMP180;58088;51.186;17.130;2022-08-19T01:39:42;99502.40;;;25.30
70533;BMP180;58088;51.186;17.130;2022-08-19T01:42:09;99494.80;;;25.30
70533;BMP180;58088;51.186;17.130;2022-08-19T01:44:40;99484.40;;;25.30
70533;BMP180;58088;51.186;17.130;2022-08-19T01:47:09;99484.00;;;25.30
70533;BMP180;58088;51.186;17.130;2022-08-19T01:49:35;99482.80;;;25.30
70533;BMP180;58088;51.186;17.130;2022-08-19T01:52:03;99490.80;;;25.30
70533;BMP180;58088;51.186;17.130;2022-08-19T01:54:30;99493.00;;;25.30
70533;BMP180;58088;51.186;17.130;2022-08-19T01:57:08;99492.00;;;25.30
70533;BMP180;58088;51.186;17.130;2022-08-19T01:59:35;99481.00;;;25.30
70533;BMP180;58088;51.186;17.130;2022-08-19T02:02:05;99485.40;;;25.28
70533;BMP180;58088;51.186;17.130;2022-08-19T02:04:35;99481.60;;;25.20
70533;BMP180;58088;51.186;17.130;2022-08-19T02:07:05;99479.40;;;25.20
70533;BMP180;58088;51.186;17.130;2022-08-19T02:09:33;99486.40;;;25.20
70533;BMP180;58088;51.186;17.130;2022-08-19T02:11:59;99495.80;;;25.10
70533;BMP180;58088;51.186;17.130;2022-08-19T02:14:26;99488.00;;;25.10
70533;BMP180;58088;51.186;17.130;2022-08-19T02:16:53;99485.40;;;25.10
70533;BMP180;58088;51.186;17.130;2022-08-19T02:19:19;99491.20;;;25.10
70533;BMP180;58088;51.186;17.130;2022-08-19T02:21:45;99493.80;;;25.10
70533;BMP180;58088;51.186;17.130;2022-08-19T02:24:12;99489.20;;;25.04
70533;BMP180;58088;51.186;17.130;2022-08-19T02:26:38;99486.20;;;25.00
70533;BMP180;58088;51.186;17.130;2022-08-19T02:29:04;99479.20;;;25.00
70533;BMP180;58088;51.186;17.130;2022-08-19T02:31:30;99470.40;;;25.00
70533;BMP180;58088;51.186;17.130;2022-08-19T02:33:57;99462.80;;;25.00
70533;BMP180;58088;51.186;17.130;2022-08-19T02:36:25;99465.40;;;25.00
70533;BMP180;58088;51.186;17.130;2022-08-19T02:38:52;99470.00;;;24.90
70533;BMP180;58088;51.186;17.130;2022-08-19T02:41:22;99473.00;;;24.90
70533;BMP180;58088;51.186;17.130;2022-08-19T02:43:49;99474.80;;;24.90
70533;BMP180;58088;51.186;17.130;2022-08-19T02:46:26;99472.60;;;24.90
70533;BMP180;58088;51.186;17.130;2022-08-19T02:49:01;99457.40;;;24.80
70533;BMP180;58088;51.186;17.130;2022-08-19T02:51:33;99453.60;;;24.80
70533;BMP180;58088;51.186;17.130;2022-08-19T02:54:01;99457.80;;;24.80
70533;BMP180;58088;51.186;17.130;2022-08-19T02:56:28;99460.20;;;24.70
70533;BMP180;58088;51.186;17.130;2022-08-19T02:58:54;99462.60;;;24.70
70533;BMP180;58088;51.186;17.130;2022-08-19T03:01:31;99463.80;;;24.68
70533;BMP180;58088;51.186;17.130;2022-08-19T03:04:00;99468.20;;;24.60
70533;BMP180;58088;51.186;17.130;2022-08-19T03:06:28;99468.00;;;24.60
70533;BMP180;58088;51.186;17.130;2022-08-19T03:08:55;99462.00;;;24.50
70533;BMP180;58088;51.186;17.130;2022-08-19T03:11:27;99454.80;;;24.50
70533;BMP180;58088;51.186;17.130;2022-08-19T03:13:54;99459.60;;;24.50
70533;BMP180;58088;51.186;17.130;2022-08-19T03:16:23;99458.60;;;24.50
70533;BMP180;58088;51.186;17.130;2022-08-19T03:18:51;99466.20;;;24.50
70533;BMP180;58088;51.186;17.130;2022-08-19T03:21:22;99464.80;;;24.40
70533;BMP180;58088;51.186;17.130;2022-08-19T03:23:53;99478.40;;;24.40
70533;BMP180;58088;51.186;17.130;2022-08-19T03:26:20;99485.80;;;24.32
70533;BMP180;58088;51.186;17.130;2022-08-19T03:28:46;99494.80;;;24.30
70533;BMP180;58088;51.186;17.130;2022-08-19T03:31:19;99495.00;;;24.30
70533;BMP180;58088;51.186;17.130;2022-08-19T03:33:46;99495.40;;;24.30
70533;BMP180;58088;51.186;17.130;2022-08-19T03:36:16;99498.20;;;24.20
70533;BMP180;58088;51.186;17.130;2022-08-19T03:38:58;99496.60;;;24.20
70533;BMP180;58088;51.186;17.130;2022-08-19T03:41:47;99500.40;;;24.20
70533;BMP180;58088;51.186;17.130;2022-08-19T03:44:21;99496.00;;;24.20
70533;BMP180;58088;51.186;17.130;2022-08-19T03:46:54;99497.80;;;24.20
70533;BMP180;58088;51.186;17.130;2022-08-19T03:49:24;99503.00;;;24.20
70533;BMP180;58088;51.186;17.130;2022-08-19T03:51:51;99503.00;;;24.20
70533;BMP180;58088;51.186;17.130;2022-08-19T03:54:21;99506.40;;;24.20
70533;BMP180;58088;51.186;17.130;2022-08-19T03:56:54;99496.80;;;24.20
70533;BMP180;58088;51.186;17.130;2022-08-19T03:59:28;99496.60;;;24.20
70533;BMP180;58088;51.186;17.130;2022-08-19T04:01:58;99493.60;;;24.20
70533;BMP180;58088;51.186;17.130;2022-08-19T04:04:25;99502.40;;;24.20
70533;BMP180;58088;51.186;17.130;2022-08-19T04:06:52;99504.60;;;24.20
70533;BMP180;58088;51.186;17.130;2022-08-19T04:09:19;99511.00;;;24.20
70533;BMP180;58088;51.186;17.130;2022-08-19T04:11:51;99518.60;;;24.20
70533;BMP180;58088;51.186;17.130;2022-08-19T04:14:24;99523.20;;;24.20
70533;BMP180;58088;51.186;17.130;2022-08-19T04:16:52;99524.40;;;24.30
70533;BMP180;58088;51.186;17.130;2022-08-19T04:19:19;99522.40;;;24.40
70533;BMP180;58088;51.186;17.130;2022-08-19T04:21:50;99518.00;;;24.50
70533;BMP180;58088;51.186;17.130;2022-08-19T04:24:17;99519.60;;;24.64
70533;BMP180;58088;51.186;17.130;2022-08-19T04:26:44;99522.00;;;24.80
70533;BMP180;58088;51.186;17.130;2022-08-19T04:29:16;99530.40;;;24.90
70533;BMP180;58088;51.186;17.130;2022-08-19T04:31:44;99533.20;;;25.10
70533;BMP180;58088;51.186;17.130;2022-08-19T04:34:14;99526.80;;;25.30
70533;BMP180;58088;51.186;17.130;2022-08-19T04:36:43;99529.20;;;25.40
70533;BMP180;58088;51.186;17.130;2022-08-19T04:39:16;99528.60;;;25.60
70533;BMP180;58088;51.186;17.130;2022-08-19T04:41:44;99528.00;;;25.88
70533;BMP180;58088;51.186;17.130;2022-08-19T04:44:42;99532.00;;;26.24
70533;BMP180;58088;51.186;17.130;2022-08-19T04:47:08;99526.60;;;26.50
70533;BMP180;58088;51.186;17.130;2022-08-19T04:49:37;99523.80;;;26.78
70533;BMP180;58088;51.186;17.130;2022-08-19T04:52:06;99531.80;;;27.00
70533;BMP180;58088;51.186;17.130;2022-08-19T04:54:36;99532.40;;;27.16
70533;BMP180;58088;51.186;17.130;2022-08-19T04:57:03;99531.80;;;27.40
70533;BMP180;58088;51.186;17.130;2022-08-19T04:59:32;99533.40;;;27.60
70533;BMP180;58088;51.186;17.130;2022-08-19T05:01:59;99534.60;;;27.80
70533;BMP180;58088;51.186;17.130;2022-08-19T05:04:25;99523.60;;;27.90
70533;BMP180;58088;51.186;17.130;2022-08-19T05:06:51;99517.80;;;28.00
70533;BMP180;58088;51.186;17.130;2022-08-19T05:09:19;99519.00;;;28.00
70533;BMP180;58088;51.186;17.130;2022-08-19T05:11:47;99510.20;;;27.90
70533;BMP180;58088;51.186;17.130;2022-08-19T05:14:15;99504.60;;;27.80
70533;BMP180;58088;51.186;17.130;2022-08-19T05:16:42;99510.20;;;27.76
70533;BMP180;58088;51.186;17.130;2022-08-19T05:19:08;99514.00;;;27.70
70533;BMP180;58088;51.186;17.130;2022-08-19T05:21:54;99516.00;;;27.70
70533;BMP180;58088;51.186;17.130;2022-08-19T05:24:42;99517.60;;;27.60
70533;BMP180;58088;51.186;17.130;2022-08-19T05:27:08;99518.60;;;27.50
70533;BMP180;58088;51.186;17.130;2022-08-19T05:29:35;99527.00;;;27.50
70533;BMP180;58088;51.186;17.130;2022-08-19T05:32:06;99523.40;;;27.50
70533;BMP180;58088;51.186;17.130;2022-08-19T05:34:38;99523.80;;;27.70
70533;BMP180;58088;51.186;17.130;2022-08-19T05:37:07;99521.80;;;27.70
70533;BMP180;58088;51.186;17.130;2022-08-19T05:39:37;99516.60;;;27.70
70533;BMP180;58088;51.186;17.130;2022-08-19T05:42:10;99513.00;;;27.80
70533;BMP180;58088;51.186;17.130;2022-08-19T05:44:43;99513.00;;;27.92
70533;BMP180;58088;51.186;17.130;2022-08-19T05:47:16;99524.60;;;27.88
70533;BMP180;58088;51.186;17.130;2022-08-19T05:49:48;99537.60;;;27.74
70533;BMP180;58088;51.186;17.130;2022-08-19T05:52:21;99538.40;;;27.70
70533;BMP180;58088;51.186;17.130;2022-08-19T05:54:49;99530.60;;;27.80
70533;BMP180;58088;51.186;17.130;2022-08-19T05:57:19;99532.80;;;27.90
70533;BMP180;58088;51.186;17.130;2022-08-19T06:00:04;99527.20;;;28.04
70533;BMP180;58088;51.186;17.130;2022-08-19T06:02:39;99523.80;;;28.20
70533;BMP180;58088;51.186;17.130;2022-08-19T06:05:08;99516.40;;;28.40
70533;BMP180;58088;51.186;17.130;2022-08-19T06:07:38;99520.40;;;28.56
70533;BMP180;58088;51.186;17.130;2022-08-19T06:10:09;99527.40;;;28.70
70533;BMP180;58088;51.186;17.130;2022-08-19T06:12:36;99543.20;;;28.90
70533;BMP180;58088;51.186;17.130;2022-08-19T06:15:10;99549.40;;;29.18
70533;BMP180;58088;51.186;17.130;2022-08-19T06:17:37;99560.20;;;29.30
70533;BMP180;58088;51.186;17.130;2022-08-19T06:20:08;99565.40;;;29.40
70533;BMP180;58088;51.186;17.130;2022-08-19T06:22:41;99565.00;;;29.60
70533;BMP180;58088;51.186;17.130;2022-08-19T06:25:08;99568.60;;;29.70
70533;BMP180;58088;51.186;17.130;2022-08-19T06:27:36;99577.20;;;29.80
70533;BMP180;58088;51.186;17.130;2022-08-19T06:30:07;99583.80;;;29.80
70533;BMP180;58088;51.186;17.130;2022-08-19T06:32:38;99590.80;;;30.00
70533;BMP180;58088;51.186;17.130;2022-08-19T06:35:08;99597.40;;;30.20
70533;BMP180;58088;51.186;17.130;2022-08-19T06:37:38;99596.40;;;30.30
70533;BMP180;58088;51.186;17.130;2022-08-19T06:40:11;99597.20;;;30.54
70533;BMP180;58088;51.186;17.130;2022-08-19T06:42:41;99602.00;;;30.76
70533;BMP180;58088;51.186;17.130;2022-08-19T06:45:11;99609.20;;;31.00
70533;BMP180;58088;51.186;17.130;2022-08-19T06:47:42;99612.60;;;31.20
70533;BMP180;58088;51.186;17.130;2022-08-19T06:50:16;99621.40;;;31.30
70533;BMP180;58088;51.186;17.130;2022-08-19T06:52:45;99632.60;;;31.30
70533;BMP180;58088;51.186;17.130;2022-08-19T06:55:12;99640.00;;;31.40
70533;BMP180;58088;51.186;17.130;2022-08-19T06:57:38;99643.20;;;31.50
70533;BMP180;58088;51.186;17.130;2022-08-19T07:00:06;99644.20;;;31.60
70533;BMP180;58088;51.186;17.130;2022-08-19T07:02:35;99648.80;;;31.66
70533;BMP180;58088;51.186;17.130;2022-08-19T07:05:04;99645.20;;;31.70
70533;BMP180;58088;51.186;17.130;2022-08-19T07:07:33;99650.00;;;31.90
70533;BMP180;58088;51.186;17.130;2022-08-19T07:10:01;99658.20;;;32.10
70533;BMP180;58088;51.186;17.130;2022-08-19T07:12:30;99657.80;;;32.30
70533;BMP180;58088;51.186;17.130;2022-08-19T07:14:58;99651.80;;;32.36
70533;BMP180;58088;51.186;17.130;2022-08-19T07:17:25;99660.00;;;32.40
70533;BMP180;58088;51.186;17.130;2022-08-19T07:19:52;99653.40;;;32.60
70533;BMP180;58088;51.186;17.130;2022-08-19T07:22:18;99654.60;;;32.88
70533;BMP180;58088;51.186;17.130;2022-08-19T07:24:46;99656.40;;;33.10
70533;BMP180;58088;51.186;17.130;2022-08-19T07:27:13;99658.40;;;33.20
70533;BMP180;58088;51.186;17.130;2022-08-19T07:29:39;99664.60;;;33.40
70533;BMP180;58088;51.186;17.130;2022-08-19T07:32:06;99661.80;;;33.60
70533;BMP180;58088;51.186;17.130;2022-08-19T07:34:33;99664.00;;;33.80
70533;BMP180;58088;51.186;17.130;2022-08-19T07:37:06;99668.60;;;33.90
70533;BMP180;58088;51.186;17.130;2022-08-19T07:39:36;99673.20;;;34.00
70533;BMP180;58088;51.186;17.130;2022-08-19T07:42:07;99672.00;;;34.00
70533;BMP180;58088;51.186;17.130;2022-08-19T07:44:36;99679.20;;;34.10
70533;BMP180;58088;51.186;17.130;2022-08-19T07:47:04;99683.40;;;34.14
70533;BMP180;58088;51.186;17.130;2022-08-19T07:49:31;99683.20;;;34.24
70533;BMP180;58088;51.186;17.130;2022-08-19T07:52:04;99681.20;;;34.20
70533;BMP180;58088;51.186;17.130;2022-08-19T07:54:34;99687.60;;;34.30
70533;BMP180;58088;51.186;17.130;2022-08-19T07:57:03;99683.60;;;34.50
70533;BMP180;58088;51.186;17.130;2022-08-19T07:59:29;99685.80;;;34.60
70533;BMP180;58088;51.186;17.130;2022-08-19T08:01:58;99686.60;;;34.70
70533;BMP180;58088;51.186;17.130;2022-08-19T08:04:28;99690.80;;;34.70
70533;BMP180;58088;51.186;17.130;2022-08-19T08:07:13;99694.80;;;34.58
70533;BMP180;58088;51.186;17.130;2022-08-19T08:09:58;99693.00;;;34.50
70533;BMP180;58088;51.186;17.130;2022-08-19T08:12:38;99697.80;;;34.40
70533;BMP180;58088;51.186;17.130;2022-08-19T08:15:14;99696.80;;;34.30
70533;BMP180;58088;51.186;17.130;2022-08-19T08:17:45;99706.20;;;34.20
70533;BMP180;58088;51.186;17.130;2022-08-19T08:20:12;99714.00;;;34.20
70533;BMP180;58088;51.186;17.130;2022-08-19T08:22:44;99715.80;;;34.20
70533;BMP180;58088;51.186;17.130;2022-08-19T08:25:30;99716.60;;;34.12
70533;BMP180;58088;51.186;17.130;2022-08-19T08:27:57;99718.00;;;33.90
70533;BMP180;58088;51.186;17.130;2022-08-19T08:30:28;99722.40;;;33.70
70533;BMP180;58088;51.186;17.130;2022-08-19T08:32:56;99718.00;;;33.60
70533;BMP180;58088;51.186;17.130;2022-08-19T08:35:24;99716.60;;;33.70
70533;BMP180;58088;51.186;17.130;2022-08-19T08:37:53;99706.60;;;33.90
70533;BMP180;58088;51.186;17.130;2022-08-19T08:41:03;99701.00;;;34.20
70533;BMP180;58088;51.186;17.130;2022-08-19T08:43:38;99704.80;;;34.30
70533;BMP180;58088;51.186;17.130;2022-08-19T08:46:48;99696.80;;;34.42
70533;BMP180;58088;51.186;17.130;2022-08-19T08:52:39;99697.20;;;34.40
70533;BMP180;58088;51.186;17.130;2022-08-19T08:55:16;99698.80;;;34.40
70533;BMP180;58088;51.186;17.130;2022-08-19T09:00:24;99695.80;;;34.50
70533;BMP180;58088;51.186;17.130;2022-08-19T09:02:54;99695.60;;;34.56
70533;BMP180;58088;51.186;17.130;2022-08-19T09:05:21;99693.00;;;34.70
70533;BMP180;58088;51.186;17.130;2022-08-19T09:08:08;99695.60;;;34.70
70533;BMP180;58088;51.186;17.130;2022-08-19T09:10:45;99691.60;;;34.80
70533;BMP180;58088;51.186;17.130;2022-08-19T09:16:24;99687.00;;;34.70
70533;BMP180;58088;51.186;17.130;2022-08-19T09:18:58;99687.00;;;34.80
70533;BMP180;58088;51.186;17.130;2022-08-19T09:21:26;99679.60;;;34.90
70533;BMP180;58088;51.186;17.130;2022-08-19T09:23:53;99682.80;;;34.90
70533;BMP180;58088;51.186;17.130;2022-08-19T09:26:22;99683.20;;;34.90
70533;BMP180;58088;51.186;17.130;2022-08-19T09:28:51;99685.20;;;34.84
70533;BMP180;58088;51.186;17.130;2022-08-19T09:31:25;99687.20;;;34.80
70533;BMP180;58088;51.186;17.130;2022-08-19T09:33:53;99700.00;;;34.82
70533;BMP180;58088;51.186;17.130;2022-08-19T09:36:26;99699.60;;;34.70
70533;BMP180;58088;51.186;17.130;2022-08-19T09:38:58;99695.60;;;34.70
70533;BMP180;58088;51.186;17.130;2022-08-19T09:41:27;99694.80;;;34.80
70533;BMP180;58088;51.186;17.130;2022-08-19T09:43:56;99697.80;;;34.80
70533;BMP180;58088;51.186;17.130;2022-08-19T09:46:26;99695.00;;;34.90
70533;BMP180;58088;51.186;17.130;2022-08-19T09:48:54;99697.40;;;34.92
70533;BMP180;58088;51.186;17.130;2022-08-19T09:51:24;99691.80;;;35.00
70533;BMP180;58088;51.186;17.130;2022-08-19T09:53:52;99691.20;;;35.00
70533;BMP180;58088;51.186;17.130;2022-08-19T09:56:23;99693.80;;;35.10
70533;BMP180;58088;51.186;17.130;2022-08-19T09:58:49;99692.60;;;35.10
70533;BMP180;58088;51.186;17.130;2022-08-19T10:01:26;99704.80;;;35.10
70533;BMP180;58088;51.186;17.130;2022-08-19T10:03:58;99706.40;;;35.10
70533;BMP180;58088;51.186;17.130;2022-08-19T10:06:28;99704.80;;;35.00
70533;BMP180;58088;51.186;17.130;2022-08-19T10:08:57;99699.00;;;34.80
70533;BMP180;58088;51.186;17.130;2022-08-19T10:11:23;99700.60;;;34.80
70533;BMP180;58088;51.186;17.130;2022-08-19T10:13:50;99701.20;;;34.90
70533;BMP180;58088;51.186;17.130;2022-08-19T10:16:21;99697.60;;;35.00
70533;BMP180;58088;51.186;17.130;2022-08-19T10:18:49;99700.00;;;35.10
70533;BMP180;58088;51.186;17.130;2022-08-19T10:21:23;99702.40;;;35.10
70533;BMP180;58088;51.186;17.130;2022-08-19T10:23:54;99708.80;;;35.10
70533;BMP180;58088;51.186;17.130;2022-08-19T10:26:29;99710.20;;;35.10
70533;BMP180;58088;51.186;17.130;2022-08-19T10:28:57;99702.80;;;35.10
70533;BMP180;58088;51.186;17.130;2022-08-19T10:31:33;99708.40;;;35.10
70533;BMP180;58088;51.186;17.130;2022-08-19T10:34:03;99700.40;;;35.06
70533;BMP180;58088;51.186;17.130;2022-08-19T10:36:36;99702.80;;;35.20
70533;BMP180;58088;51.186;17.130;2022-08-19T10:39:09;99698.40;;;35.20
70533;BMP180;58088;51.186;17.130;2022-08-19T10:41:39;99693.20;;;35.10
70533;BMP180;58088;51.186;17.130;2022-08-19T10:44:09;99688.60;;;35.10
70533;BMP180;58088;51.186;17.130;2022-08-19T10:46:40;99685.60;;;35.20
70533;BMP180;58088;51.186;17.130;2022-08-19T10:49:10;99689.60;;;35.20
70533;BMP180;58088;51.186;17.130;2022-08-19T10:51:50;99687.80;;;35.20
70533;BMP180;58088;51.186;17.130;2022-08-19T10:54:39;99690.60;;;35.30
70533;BMP180;58088;51.186;17.130;2022-08-19T10:57:24;99687.40;;;35.20
70533;BMP180;58088;51.186;17.130;2022-08-19T10:59:56;99688.00;;;35.20
70533;BMP180;58088;51.186;17.130;2022-08-19T11:02:22;99685.80;;;35.20
70533;BMP180;58088;51.186;17.130;2022-08-19T11:04:51;99684.80;;;35.22
70533;BMP180;58088;51.186;17.130;2022-08-19T11:07:18;99687.80;;;35.22
70533;BMP180;58088;51.186;17.130;2022-08-19T11:09:44;99687.60;;;35.20
70533;BMP180;58088;51.186;17.130;2022-08-19T11:12:12;99687.00;;;35.18
70533;BMP180;58088;51.186;17.130;2022-08-19T11:14:39;99688.80;;;35.10
70533;BMP180;58088;51.186;17.130;2022-08-19T11:17:12;99685.40;;;35.20
70533;BMP180;58088;51.186;17.130;2022-08-19T11:19:44;99680.40;;;35.20
70533;BMP180;58088;51.186;17.130;2022-08-19T11:22:10;99678.60;;;35.30
70533;BMP180;58088;51.186;17.130;2022-08-19T11:24:36;99675.80;;;35.40
70533;BMP180;58088;51.186;17.130;2022-08-19T11:27:07;99679.60;;;35.40
70533;BMP180;58088;51.186;17.130;2022-08-19T11:29:38;99680.80;;;35.50
70533;BMP180;58088;51.186;17.130;2022-08-19T11:32:10;99680.40;;;35.60
70533;BMP180;58088;51.186;17.130;2022-08-19T11:34:37;99682.60;;;35.60
70533;BMP180;58088;51.186;17.130;2022-08-19T11:37:04;99686.00;;;35.60
70533;BMP180;58088;51.186;17.130;2022-08-19T11:39:33;99689.20;;;35.70
70533;BMP180;58088;51.186;17.130;2022-08-19T11:42:01;99680.20;;;35.70
70533;BMP180;58088;51.186;17.130;2022-08-19T11:44:28;99684.00;;;35.70
70533;BMP180;58088;51.186;17.130;2022-08-19T11:46:56;99684.80;;;35.70
70533;BMP180;58088;51.186;17.130;2022-08-19T11:49:22;99689.80;;;35.70
70533;BMP180;58088;51.186;17.130;2022-08-19T11:51:48;99691.80;;;35.70
70533;BMP180;58088;51.186;17.130;2022-08-19T11:54:17;99696.20;;;35.70
70533;BMP180;58088;51.186;17.130;2022-08-19T11:56:44;99695.40;;;35.60
70533;BMP180;58088;51.186;17.130;2022-08-19T11:59:11;99701.40;;;35.60
70533;BMP180;58088;51.186;17.130;2022-08-19T12:01:37;99695.20;;;35.60
70533;BMP180;58088;51.186;17.130;2022-08-19T12:04:06;99687.80;;;35.64
70533;BMP180;58088;51.186;17.130;2022-08-19T12:06:33;99685.00;;;35.68
70533;BMP180;58088;51.186;17.130;2022-08-19T12:09:06;99684.20;;;35.70
70533;BMP180;58088;51.186;17.130;2022-08-19T12:11:34;99680.20;;;35.70
70533;BMP180;58088;51.186;17.130;2022-08-19T12:14:00;99679.60;;;35.70
70533;BMP180;58088;51.186;17.130;2022-08-19T12:16:28;99673.20;;;35.80
70533;BMP180;58088;51.186;17.130;2022-08-19T12:18:56;99666.80;;;35.80
70533;BMP180;58088;51.186;17.130;2022-08-19T12:21:26;99667.80;;;35.80
70533;BMP180;58088;51.186;17.130;2022-08-19T12:23:58;99667.60;;;35.80
70533;BMP180;58088;51.186;17.130;2022-08-19T12:26:29;99667.60;;;35.80
70533;BMP180;58088;51.186;17.130;2022-08-19T12:28:55;99669.80;;;35.70
70533;BMP180;58088;51.186;17.130;2022-08-19T12:31:21;99663.60;;;35.70
70533;BMP180;58088;51.186;17.130;2022-08-19T12:33:47;99669.40;;;35.70
70533;BMP180;58088;51.186;17.130;2022-08-19T12:36:16;99667.60;;;35.74
70533;BMP180;58088;51.186;17.130;2022-08-19T12:38:44;99675.60;;;35.70
70533;BMP180;58088;51.186;17.130;2022-08-19T12:41:15;99675.20;;;35.80
70533;BMP180;58088;51.186;17.130;2022-08-19T12:43:43;99677.60;;;35.80
70533;BMP180;58088;51.186;17.130;2022-08-19T12:46:11;99678.60;;;35.80
70533;BMP180;58088;51.186;17.130;2022-08-19T12:48:38;99677.40;;;35.90
70533;BMP180;58088;51.186;17.130;2022-08-19T12:51:13;99674.40;;;35.90
70533;BMP180;58088;51.186;17.130;2022-08-19T12:53:41;99681.60;;;35.94
70533;BMP180;58088;51.186;17.130;2022-08-19T12:56:11;99674.40;;;35.90
70533;BMP180;58088;51.186;17.130;2022-08-19T12:58:40;99680.20;;;35.90
70533;BMP180;58088;51.186;17.130;2022-08-19T13:01:10;99674.40;;;35.90
70533;BMP180;58088;51.186;17.130;2022-08-19T13:03:37;99672.80;;;35.82
70533;BMP180;58088;51.186;17.130;2022-08-19T13:06:04;99677.40;;;35.80
70533;BMP180;58088;51.186;17.130;2022-08-19T13:08:30;99684.20;;;35.82
70533;BMP180;58088;51.186;17.130;2022-08-19T13:10:57;99676.40;;;35.90
70533;BMP180;58088;51.186;17.130;2022-08-19T13:13:24;99673.40;;;35.90
70533;BMP180;58088;51.186;17.130;2022-08-19T13:15:51;99674.20;;;35.90
70533;BMP180;58088;51.186;17.130;2022-08-19T13:18:17;99672.80;;;35.90
70533;BMP180;58088;51.186;17.130;2022-08-19T13:20:43;99678.00;;;35.82
70533;BMP180;58088;51.186;17.130;2022-08-19T13:23:09;99671.80;;;35.70
70533;BMP180;58088;51.186;17.130;2022-08-19T13:25:36;99673.80;;;35.60
70533;BMP180;58088;51.186;17.130;2022-08-19T13:28:03;99671.20;;;35.54
70533;BMP180;58088;51.186;17.130;2022-08-19T13:30:32;99673.00;;;35.50
70533;BMP180;58088;51.186;17.130;2022-08-19T13:33:18;99671.40;;;35.50
70533;BMP180;58088;51.186;17.130;2022-08-19T13:35:57;99674.20;;;35.40
70533;BMP180;58088;51.186;17.130;2022-08-19T13:38:26;99670.00;;;35.40
70533;BMP180;58088;51.186;17.130;2022-08-19T13:40:54;99670.40;;;35.30
70533;BMP180;58088;51.186;17.130;2022-08-19T13:43:26;99662.00;;;35.30
70533;BMP180;58088;51.186;17.130;2022-08-19T13:45:54;99668.80;;;35.30
70533;BMP180;58088;51.186;17.130;2022-08-19T13:48:25;99672.00;;;35.20
70533;BMP180;58088;51.186;17.130;2022-08-19T13:50:52;99669.60;;;35.30
70533;BMP180;58088;51.186;17.130;2022-08-19T13:53:19;99671.20;;;35.20
70533;BMP180;58088;51.186;17.130;2022-08-19T13:55:45;99673.80;;;35.20
70533;BMP180;58088;51.186;17.130;2022-08-19T13:58:12;99673.80;;;35.20
70533;BMP180;58088;51.186;17.130;2022-08-19T14:00:44;99677.40;;;35.12
70533;BMP180;58088;51.186;17.130;2022-08-19T14:03:11;99679.80;;;35.10
70533;BMP180;58088;51.186;17.130;2022-08-19T14:05:38;99678.20;;;35.10
70533;BMP180;58088;51.186;17.130;2022-08-19T14:08:04;99677.20;;;35.00
70533;BMP180;58088;51.186;17.130;2022-08-19T14:10:30;99673.80;;;35.00
70533;BMP180;58088;51.186;17.130;2022-08-19T14:13:01;99674.00;;;35.00
70533;BMP180;58088;51.186;17.130;2022-08-19T14:15:28;99671.20;;;34.92
70533;BMP180;58088;51.186;17.130;2022-08-19T14:17:56;99672.60;;;34.90
70533;BMP180;58088;51.186;17.130;2022-08-19T14:20:23;99674.20;;;34.80
70533;BMP180;58088;51.186;17.130;2022-08-19T14:22:49;99675.80;;;34.80
70533;BMP180;58088;51.186;17.130;2022-08-19T14:25:21;99673.00;;;34.70